Time;durP1;ratioP1;P1;durP2;ratioP2;P2;SDS_P1;SDS_P2;PMS_P1;PMS_P2;Temp;Humidity;BMP_temperature;BMP_pressure;BME280_temperature;BME280_humidity;BME280_pressure;Samples;Min_cycle;Max_cycle;Signal;HPM_P1;HPM_P2
2022/10/10 00:01:12;;;;;;;8.53;3.70;;;12.90;67.40;;;;;;5104279;28;20454;-76
2022/10/10 00:03:39;;;;;;;6.10;4.27;;;12.80;67.60;;;;;;5118814;28;20427;-76
2022/10/10 00:06:06;;;;;;;4.03;3.33;;;12.80;67.70;;;;;;5102012;28;20457;-76
2022/10/10 00:08:33;;;;;;;5.40;3.97;;;12.80;67.90;;;;;;5095740;28;20443;-77
2022/10/10 00:11:00;;;;;;;7.50;4.57;;;12.70;67.90;;;;;;5095357;28;20841;-76
2022/10/10 00:13:27;;;;;;;4.10;3.50;;;12.70;68.00;;;;;;5094859;28;20451;-77
2022/10/10 00:15:55;;;;;;;6.33;3.40;;;12.60;67.90;;;;;;5094654;28;20452;-76
2022/10/10 00:18:21;;;;;;;8.70;3.83;;;12.60;68.00;;;;;;5095173;28;20439;-76
2022/10/10 00:20:50;;;;;;;4.80;4.13;;;12.60;68.20;;;;;;5094597;28;20472;-77
2022/10/10 00:23:17;;;;;;;4.10;3.70;;;12.60;68.50;;;;;;5094525;28;20465;-77
2022/10/10 00:25:44;;;;;;;4.07;3.67;;;12.50;68.70;;;;;;5094492;28;20449;-77
2022/10/10 00:28:11;;;;;;;4.57;3.90;;;12.50;68.90;;;;;;5094420;28;20924;-77
2022/10/10 00:30:38;;;;;;;4.63;3.40;;;12.50;69.10;;;;;;5087259;28;20520;-76
2022/10/10 00:33:07;;;;;;;4.23;3.70;;;12.50;69.30;;;;;;5077499;28;20479;-75
2022/10/10 00:35:34;;;;;;;7.70;4.03;;;12.50;69.50;;;;;;5091175;28;20507;-76
2022/10/10 00:38:00;;;;;;;4.40;3.50;;;12.40;69.40;;;;;;5080119;28;20482;-76
2022/10/10 00:40:27;;;;;;;6.27;3.13;;;12.40;69.50;;;;;;5077493;28;20487;-76
2022/10/10 00:42:54;;;;;;;5.80;3.70;;;12.40;69.40;;;;;;5082344;28;20471;-76
2022/10/10 00:45:37;;;;;;;4.00;3.70;;;12.40;69.70;;;;;;5089228;28;20473;-76
2022/10/10 00:48:09;;;;;;;4.00;3.67;;;12.30;69.70;;;;;;5091800;28;20474;-76
2022/10/10 00:50:38;;;;;;;5.00;3.50;;;12.30;69.80;;;;;;5081453;28;21030;-76
2022/10/10 00:53:07;;;;;;;4.30;3.90;;;12.30;70.00;;;;;;5093083;28;20471;-76
2022/10/10 00:55:34;;;;;;;4.33;3.30;;;12.20;69.90;;;;;;5072874;28;20836;-76
2022/10/10 00:58:02;;;;;;;3.70;3.27;;;12.20;69.80;;;;;;5072969;28;20479;-76
2022/10/10 01:00:29;;;;;;;5.97;3.80;;;12.20;69.90;;;;;;5084216;28;20529;-76
2022/10/10 01:02:56;;;;;;;5.27;3.37;;;12.20;70.10;;;;;;5075416;28;20463;-76
2022/10/10 01:05:24;;;;;;;5.90;3.43;;;12.10;70.00;;;;;;5073952;28;20562;-77
2022/10/10 01:07:52;;;;;;;5.40;4.60;;;12.10;70.30;;;;;;5084817;28;20462;-76
2022/10/10 01:10:21;;;;;;;3.90;3.30;;;12.10;70.70;;;;;;5082933;28;20490;-76
2022/10/10 01:12:57;;;;;;;7.10;5.10;;;12.10;71.70;;;;;;5092697;28;21045;-76
2022/10/10 01:15:36;;;;;;;5.23;3.80;;;12.10;71.10;;;;;;5077535;28;20983;-75
2022/10/10 01:18:12;;;;;;;3.50;3.20;;;12.10;71.40;;;;;;5080660;28;20472;-76
2022/10/10 01:20:52;;;;;;;5.00;4.27;;;12.10;71.90;;;;;;5076185;28;20485;-76
2022/10/10 01:23:48;;;;;;;3.57;3.27;;;12.00;72.20;;;;;;5089418;28;20473;-76
2022/10/10 01:26:42;;;;;;;6.80;4.13;;;12.00;72.50;;;;;;5088660;28;20472;-76
2022/10/10 01:29:19;;;;;;;4.80;3.90;;;12.00;72.90;;;;;;5086478;28;20490;-76
2022/10/10 01:31:48;;;;;;;6.33;4.20;;;12.00;73.30;;;;;;5074513;28;20459;-76
2022/10/10 01:34:22;;;;;;;4.63;4.10;;;12.00;73.60;;;;;;5073000;28;20457;-77
2022/10/10 01:36:54;;;;;;;6.40;4.27;;;11.90;73.60;;;;;;5081795;28;20478;-75
2022/10/10 01:39:27;;;;;;;5.47;3.90;;;11.90;73.80;;;;;;5079059;28;20492;-76
2022/10/10 01:42:01;;;;;;;4.73;3.47;;;11.90;74.00;;;;;;5077573;28;20459;-75
2022/10/10 01:44:29;;;;;;;5.80;4.77;;;11.90;74.30;;;;;;5082786;28;20470;-76
2022/10/10 01:46:56;;;;;;;6.10;3.50;;;11.90;74.50;;;;;;5091652;28;20461;-76
2022/10/10 01:49:27;;;;;;;5.90;4.37;;;11.90;74.60;;;;;;5091168;28;20841;-76
2022/10/10 01:52:09;;;;;;;6.13;3.63;;;11.90;74.80;;;;;;5092663;28;20471;-76
2022/10/10 01:54:47;;;;;;;4.60;4.20;;;11.90;74.90;;;;;;5076324;28;20981;-76
2022/10/10 01:57:24;;;;;;;5.23;4.03;;;11.90;75.20;;;;;;5075528;28;20478;-75
2022/10/10 02:00:04;;;;;;;6.40;4.43;;;11.90;75.40;;;;;;5073133;28;20475;-76
2022/10/10 02:02:40;;;;;;;6.57;4.67;;;11.90;75.50;;;;;;5084975;28;20491;-76
2022/10/10 02:05:15;;;;;;;9.33;5.07;;;11.80;75.40;;;;;;5076326;28;20454;-76
2022/10/10 02:07:48;;;;;;;11.33;4.50;;;11.80;75.40;;;;;;5076233;28;20459;-76
2022/10/10 02:10:19;;;;;;;7.90;4.40;;;11.80;76.00;;;;;;5076372;28;20831;-77
2022/10/10 02:12:47;;;;;;;9.23;4.60;;;11.80;75.20;;;;;;5078800;28;20464;-76
2022/10/10 02:15:19;;;;;;;5.80;5.30;;;11.70;75.10;;;;;;5072621;28;20963;-76
2022/10/10 02:17:48;;;;;;;5.10;3.90;;;11.70;75.50;;;;;;5072824;28;20468;-76
2022/10/10 02:20:19;;;;;;;4.33;3.97;;;11.70;75.80;;;;;;5072887;28;20827;-76
2022/10/10 02:22:46;;;;;;;4.60;4.20;;;11.70;75.80;;;;;;5072728;28;20455;-76
2022/10/10 02:25:14;;;;;;;4.40;4.00;;;11.70;75.90;;;;;;5072869;28;20444;-76
2022/10/10 02:27:44;;;;;;;7.17;4.60;;;11.70;76.00;;;;;;5072795;28;20443;-76
2022/10/10 02:30:13;;;;;;;6.63;5.03;;;11.70;75.90;;;;;;5072844;28;20482;-76
2022/10/10 02:32:44;;;;;;;7.73;4.90;;;11.60;76.10;;;;;;5075935;28;20447;-76
2022/10/10 02:35:15;;;;;;;6.90;5.30;;;11.60;76.30;;;;;;5076516;28;20436;-76
2022/10/10 02:37:43;;;;;;;5.57;4.80;;;11.60;76.40;;;;;;5076376;28;20470;-77
2022/10/10 02:40:14;;;;;;;5.50;4.50;;;11.60;76.60;;;;;;5076271;28;20467;-76
2022/10/10 02:42:41;;;;;;;4.90;4.23;;;11.60;76.80;;;;;;5075958;28;20960;-76
2022/10/10 02:45:08;;;;;;;6.13;4.60;;;11.60;76.90;;;;;;5076048;28;20458;-76
2022/10/10 02:47:35;;;;;;;8.10;5.60;;;11.50;76.80;;;;;;5076470;28;20444;-76
2022/10/10 02:50:03;;;;;;;6.50;4.97;;;11.50;76.90;;;;;;5076113;28;20997;-76
2022/10/10 02:52:31;;;;;;;6.97;4.80;;;11.50;77.10;;;;;;5076327;28;20460;-76
2022/10/10 02:54:57;;;;;;;7.53;5.20;;;11.50;77.30;;;;;;5076290;28;20458;-76
2022/10/10 02:57:24;;;;;;;6.00;4.70;;;11.50;77.50;;;;;;5076017;28;20486;-76
2022/10/10 02:59:51;;;;;;;7.53;5.00;;;11.50;77.60;;;;;;5076363;28;20501;-76
2022/10/10 03:02:18;;;;;;;6.10;4.10;;;11.50;78.50;;;;;;5076148;28;20446;-76
2022/10/10 03:04:45;;;;;;;6.60;4.90;;;11.50;77.90;;;;;;5075871;28;20867;-76
2022/10/10 03:07:13;;;;;;;8.50;5.00;;;11.50;77.90;;;;;;5075960;28;20853;-76
2022/10/10 03:09:39;;;;;;;6.33;4.37;;;11.50;78.10;;;;;;5075711;28;20476;-76
2022/10/10 03:12:06;;;;;;;6.50;5.07;;;11.50;78.50;;;;;;5075940;28;20455;-76
2022/10/10 03:14:33;;;;;;;5.50;4.10;;;11.50;78.80;;;;;;5077832;28;20448;-76
2022/10/10 03:17:00;;;;;;;11.50;4.77;;;11.50;78.90;;;;;;5098370;28;20435;-75
2022/10/10 03:19:27;;;;;;;6.30;4.63;;;11.50;79.20;;;;;;5092452;28;20468;-76
2022/10/10 03:21:53;;;;;;;7.27;4.47;;;11.50;79.40;;;;;;5077735;28;20443;-76
2022/10/10 03:24:21;;;;;;;6.87;4.90;;;11.50;79.60;;;;;;5077084;28;20810;-76
2022/10/10 03:26:48;;;;;;;6.50;4.60;;;11.50;79.80;;;;;;5076484;28;20474;-76
2022/10/10 03:29:15;;;;;;;8.00;5.10;;;11.40;79.90;;;;;;5076018;28;20702;-76
2022/10/10 03:31:42;;;;;;;8.77;6.30;;;11.40;80.20;;;;;;5075987;28;20455;-76
2022/10/10 03:34:08;;;;;;;7.60;6.43;;;11.40;80.60;;;;;;5075804;28;20460;-76
2022/10/10 03:36:35;;;;;;;7.90;5.70;;;11.40;80.70;;;;;;5075446;28;20453;-76
2022/10/10 03:39:02;;;;;;;6.07;5.07;;;11.40;80.70;;;;;;5075367;28;20478;-76
2022/10/10 03:41:30;;;;;;;7.10;5.27;;;11.40;80.70;;;;;;5075513;28;20454;-76
2022/10/10 03:43:57;;;;;;;9.97;4.70;;;11.40;80.60;;;;;;5074995;28;20824;-76
2022/10/10 03:46:24;;;;;;;8.10;5.73;;;11.40;80.50;;;;;;5074816;28;20984;-76
2022/10/10 03:48:51;;;;;;;9.30;5.47;;;11.40;80.60;;;;;;5075124;28;20443;-76
2022/10/10 03:51:18;;;;;;;5.70;5.10;;;11.30;80.80;;;;;;5075369;28;20439;-76
2022/10/10 03:53:45;;;;;;;8.33;5.70;;;11.30;80.80;;;;;;5075067;28;20455;-76
2022/10/10 03:56:12;;;;;;;6.40;5.73;;;11.30;80.80;;;;;;5074934;28;20458;-76
2022/10/10 03:58:40;;;;;;;10.17;6.60;;;11.30;81.00;;;;;;5074972;28;20487;-76
2022/10/10 04:01:08;;;;;;;8.10;6.60;;;11.30;81.20;;;;;;5074742;28;20471;-76
2022/10/10 04:03:35;;;;;;;6.70;5.87;;;11.30;81.30;;;;;;5074923;28;20448;-76
2022/10/10 04:06:01;;;;;;;9.10;6.33;;;11.30;81.30;;;;;;5075011;28;20447;-77
2022/10/10 04:08:28;;;;;;;7.07;6.33;;;11.20;81.50;;;;;;5075667;28;20459;-76
2022/10/10 04:10:55;;;;;;;8.43;6.70;;;11.30;81.90;;;;;;5074588;28;20475;-76
2022/10/10 04:13:24;;;;;;;7.83;6.07;;;11.20;81.80;;;;;;5075529;28;20827;-71
2022/10/10 04:15:52;;;;;;;8.93;6.30;;;11.20;81.80;;;;;;5075771;28;20458;-72
2022/10/10 04:18:20;;;;;;;7.13;6.40;;;11.20;81.80;;;;;;5075591;28;20899;-71
2022/10/10 04:20:46;;;;;;;9.30;6.50;;;11.20;82.00;;;;;;5075474;28;20476;-71
2022/10/10 04:23:13;;;;;;;13.80;7.30;;;11.20;82.10;;;;;;5075290;28;20824;-71
2022/10/10 04:25:40;;;;;;;9.70;7.20;;;11.20;82.30;;;;;;5075906;28;20530;-72
2022/10/10 04:28:09;;;;;;;11.17;6.50;;;11.10;82.20;;;;;;5075726;28;20568;-73
2022/10/10 04:30:36;;;;;;;7.37;6.40;;;11.10;82.20;;;;;;5075749;28;20470;-72
2022/10/10 04:33:04;;;;;;;10.37;7.17;;;11.10;82.30;;;;;;5075596;28;20446;-72
2022/10/10 04:35:31;;;;;;;8.70;6.87;;;11.10;82.40;;;;;;5074419;28;20456;-73
2022/10/10 04:37:58;;;;;;;12.50;7.87;;;11.10;82.30;;;;;;5074676;28;20957;-73
2022/10/10 04:40:25;;;;;;;7.93;6.90;;;11.00;82.50;;;;;;5075513;28;20501;-73
2022/10/10 04:42:51;;;;;;;10.13;6.67;;;11.00;82.60;;;;;;5075556;28;20446;-73
2022/10/10 04:45:18;;;;;;;13.77;7.03;;;11.00;82.60;;;;;;5075500;28;20827;-73
2022/10/10 04:47:45;;;;;;;8.60;6.60;;;11.00;82.60;;;;;;5075775;28;20878;-73
2022/10/10 04:50:13;;;;;;;12.50;6.83;;;11.00;82.80;;;;;;5075338;28;20474;-73
2022/10/10 04:52:40;;;;;;;11.20;7.40;;;11.00;82.90;;;;;;5075495;28;20843;-72
2022/10/10 04:55:07;;;;;;;9.10;6.37;;;11.00;83.00;;;;;;5075508;28;20459;-72
2022/10/10 04:57:34;;;;;;;9.07;7.10;;;10.90;83.00;;;;;;5075653;28;20450;-72
2022/10/10 05:00:01;;;;;;;9.33;6.93;;;10.90;83.20;;;;;;5075921;28;20475;-72
2022/10/10 05:02:28;;;;;;;9.73;6.77;;;10.90;83.60;;;;;;5075598;28;20454;-72
2022/10/10 05:04:54;;;;;;;9.10;6.80;;;10.90;83.80;;;;;;5075627;28;20458;-72
2022/10/10 05:07:22;;;;;;;11.97;7.87;;;10.90;84.10;;;;;;5080610;28;21071;-72
2022/10/10 05:09:49;;;;;;;7.60;6.83;;;10.90;84.30;;;;;;5082366;28;20471;-71
2022/10/10 05:12:16;;;;;;;12.03;6.80;;;10.80;84.50;;;;;;5082025;28;20511;-72
2022/10/10 05:14:43;;;;;;;11.63;7.47;;;10.90;84.80;;;;;;5091107;28;20455;-71
2022/10/10 05:17:09;;;;;;;11.27;7.50;;;10.80;84.90;;;;;;5081648;28;20481;-71
2022/10/10 05:19:36;;;;;;;12.23;6.93;;;10.90;85.20;;;;;;5083491;28;21018;-71
2022/10/10 05:22:03;;;;;;;9.47;6.83;;;10.80;85.10;;;;;;5087608;28;20980;-71
2022/10/10 05:24:31;;;;;;;11.40;6.40;;;10.90;85.50;;;;;;5074523;28;20486;-72
2022/10/10 05:26:58;;;;;;;9.97;6.70;;;10.90;85.60;;;;;;5074912;28;20450;-72
2022/10/10 05:29:25;;;;;;;9.70;6.13;;;10.90;85.40;;;;;;5075096;28;20471;-72
2022/10/10 05:31:51;;;;;;;7.80;6.00;;;10.90;85.50;;;;;;5074893;28;20453;-73
2022/10/10 05:34:18;;;;;;;9.43;5.80;;;10.80;85.20;;;;;;5075314;28;20775;-73
2022/10/10 05:36:45;;;;;;;7.60;5.67;;;10.80;85.20;;;;;;5075046;28;20451;-73
2022/10/10 05:39:11;;;;;;;7.17;5.90;;;10.80;85.20;;;;;;5075000;28;21032;-73
2022/10/10 05:41:40;;;;;;;9.07;6.07;;;10.80;85.20;;;;;;5074937;28;20450;-72
2022/10/10 05:44:06;;;;;;;6.60;5.90;;;10.80;85.20;;;;;;5075171;28;20460;-72
2022/10/10 05:46:33;;;;;;;6.80;5.93;;;10.80;85.30;;;;;;5074931;28;20862;-72
2022/10/10 05:49:00;;;;;;;9.10;6.00;;;10.80;85.20;;;;;;5074926;28;20436;-73
2022/10/10 05:51:26;;;;;;;7.87;5.10;;;10.80;85.30;;;;;;5075285;28;20474;-72
2022/10/10 05:53:53;;;;;;;7.60;5.80;;;10.70;85.20;;;;;;5075413;28;20457;-73
2022/10/10 05:56:20;;;;;;;7.40;5.33;;;10.70;85.40;;;;;;5075113;28;20793;-73
2022/10/10 05:58:50;;;;;;;10.83;5.07;;;10.70;85.80;;;;;;5074798;28;20482;-72
2022/10/10 06:01:16;;;;;;;9.10;5.60;;;10.80;86.40;;;;;;5075151;28;20450;-72
2022/10/10 06:03:43;;;;;;;8.83;5.53;;;10.80;86.50;;;;;;5074992;28;20455;-72
2022/10/10 06:06:10;;;;;;;5.93;5.23;;;10.80;86.50;;;;;;5076200;28;20815;-72
2022/10/10 06:08:37;;;;;;;8.20;5.27;;;10.80;86.50;;;;;;5078929;28;20640;-72
2022/10/10 06:11:06;;;;;;;7.67;5.20;;;10.80;86.80;;;;;;5078738;28;20469;-72
2022/10/10 06:13:34;;;;;;;6.60;5.40;;;10.80;87.20;;;;;;5078712;28;20495;-73
2022/10/10 06:16:02;;;;;;;8.40;4.53;;;10.80;87.30;;;;;;5079159;28;20445;-72
2022/10/10 06:18:28;;;;;;;7.80;5.87;;;10.80;87.60;;;;;;5078875;28;20833;-72
2022/10/10 06:20:55;;;;;;;6.87;4.53;;;10.90;88.00;;;;;;5078638;28;20479;-72
2022/10/10 06:23:22;;;;;;;8.37;3.90;;;10.80;87.80;;;;;;5078368;28;20532;-72
2022/10/10 06:25:52;;;;;;;5.97;4.00;;;10.90;88.00;;;;;;5078371;28;20984;-73
2022/10/10 06:28:19;;;;;;;4.50;4.10;;;11.00;88.60;;;;;;5078508;28;20869;-72
2022/10/10 06:30:47;;;;;;;4.93;3.87;;;11.00;89.00;;;;;;5077069;28;20479;-72
2022/10/10 06:33:17;;;;;;;7.17;4.20;;;11.10;89.40;;;;;;5077876;28;20552;-72
2022/10/10 06:35:45;;;;;;;5.73;3.77;;;11.10;90.00;;;;;;5078193;28;20439;-72
2022/10/10 06:38:14;;;;;;;8.17;4.00;;;11.20;90.10;;;;;;5079152;28;20489;-72
2022/10/10 06:40:40;;;;;;;7.70;4.00;;;11.30;90.20;;;;;;5078683;28;20499;-72
2022/10/10 06:43:10;;;;;;;7.60;4.30;;;11.30;90.30;;;;;;5078563;28;20448;-72
2022/10/10 06:45:37;;;;;;;4.30;3.60;;;11.40;90.20;;;;;;5078925;28;20452;-72
2022/10/10 06:48:04;;;;;;;5.90;4.23;;;11.40;90.20;;;;;;5078018;28;20444;-72
2022/10/10 06:50:33;;;;;;;5.67;3.40;;;11.50;90.10;;;;;;5078007;28;20474;-72
2022/10/10 06:52:59;;;;;;;5.93;3.60;;;11.60;90.10;;;;;;5078317;28;20452;-72
2022/10/10 06:55:26;;;;;;;4.17;3.40;;;11.70;90.20;;;;;;5077879;28;20448;-72
2022/10/10 06:57:53;;;;;;;5.00;3.50;;;11.70;90.00;;;;;;5078163;28;20462;-72
2022/10/10 07:00:20;;;;;;;4.53;3.30;;;11.80;90.00;;;;;;5077713;28;20495;-71
2022/10/10 07:02:47;;;;;;;6.93;3.30;;;11.90;90.00;;;;;;5077800;28;20451;-72
2022/10/10 07:05:15;;;;;;;5.60;3.43;;;12.00;90.00;;;;;;5078287;28;20458;-72
2022/10/10 07:07:44;;;;;;;4.63;3.80;;;12.10;89.80;;;;;;5077677;28;20459;-72
2022/10/10 07:10:13;;;;;;;4.13;3.30;;;12.10;90.00;;;;;;5077213;28;21012;-72
2022/10/10 07:12:40;;;;;;;4.20;3.80;;;12.10;90.00;;;;;;5077329;28;20531;-72
2022/10/10 07:15:08;;;;;;;5.97;3.40;;;12.20;90.00;;;;;;5077556;28;20795;-72
2022/10/10 07:17:35;;;;;;;5.60;3.93;;;12.30;89.50;;;;;;5077299;28;20441;-73
2022/10/10 07:20:01;;;;;;;6.77;4.17;;;12.40;89.70;;;;;;5077111;28;20495;-72
2022/10/10 07:22:28;;;;;;;6.10;3.87;;;12.40;89.70;;;;;;5077058;28;20430;-72
2022/10/10 07:24:56;;;;;;;4.93;3.73;;;12.50;89.90;;;;;;5077524;28;20461;-72
2022/10/10 07:27:23;;;;;;;6.30;4.00;;;12.50;89.80;;;;;;5077247;28;20438;-72
2022/10/10 07:29:50;;;;;;;4.47;3.60;;;12.60;89.60;;;;;;5077695;28;20480;-72
2022/10/10 07:32:16;;;;;;;6.10;3.97;;;12.60;89.30;;;;;;5078366;28;20446;-72
2022/10/10 07:34:43;;;;;;;5.30;4.10;;;12.60;89.10;;;;;;5076956;28;20463;-72
2022/10/10 07:37:10;;;;;;;3.93;3.53;;;12.60;89.70;;;;;;5075592;28;20456;-72
2022/10/10 07:39:37;;;;;;;5.27;3.90;;;12.60;90.10;;;;;;5077055;28;20495;-72
2022/10/10 07:42:05;;;;;;;5.00;4.00;;;12.60;90.20;;;;;;5077039;28;20806;-72
2022/10/10 07:44:32;;;;;;;7.20;4.50;;;12.60;90.40;;;;;;5076376;28;20819;-72
2022/10/10 07:46:59;;;;;;;6.83;4.50;;;12.70;90.40;;;;;;5077128;28;20448;-72
2022/10/10 07:49:25;;;;;;;8.90;4.30;;;12.70;90.50;;;;;;5077060;28;20850;-72
2022/10/10 07:51:52;;;;;;;4.87;4.10;;;12.70;90.80;;;;;;5076561;28;20456;-72
2022/10/10 07:54:19;;;;;;;5.40;3.73;;;12.70;90.70;;;;;;5076794;28;20907;-72
2022/10/10 07:56:46;;;;;;;5.60;4.20;;;12.70;90.40;;;;;;5077131;28;20810;-72
2022/10/10 07:59:14;;;;;;;7.90;3.83;;;12.70;90.50;;;;;;5076915;28;20492;-72
2022/10/10 08:01:41;;;;;;;6.57;4.83;;;12.70;90.70;;;;;;5076900;28;20458;-72
2022/10/10 08:04:08;;;;;;;5.33;3.90;;;12.80;90.70;;;;;;5076653;28;20452;-72
2022/10/10 08:06:35;;;;;;;7.50;4.93;;;12.80;90.90;;;;;;5075492;28;20964;-72
2022/10/10 08:09:01;;;;;;;8.37;4.50;;;12.80;90.90;;;;;;5076708;28;20859;-72
2022/10/10 08:11:28;;;;;;;5.40;4.20;;;12.80;91.00;;;;;;5076492;28;20455;-72
2022/10/10 08:13:55;;;;;;;6.00;4.03;;;12.80;90.80;;;;;;5076297;28;20463;-72
2022/10/10 08:16:23;;;;;;;5.20;4.10;;;12.90;90.80;;;;;;5076110;28;20510;-72
2022/10/10 08:18:50;;;;;;;5.63;4.10;;;13.00;90.90;;;;;;5075908;28;20487;-72
2022/10/10 08:21:17;;;;;;;6.77;4.67;;;13.10;90.90;;;;;;5076132;28;20463;-72
2022/10/10 08:23:44;;;;;;;6.60;4.57;;;13.20;91.10;;;;;;5076042;28;20975;-72
2022/10/10 08:26:13;;;;;;;11.83;5.17;;;13.20;91.30;;;;;;5076048;28;20452;-72
2022/10/10 08:28:40;;;;;;;7.57;4.23;;;13.30;91.40;;;;;;5075454;28;20463;-72
2022/10/10 08:31:09;;;;;;;7.10;4.87;;;13.40;91.30;;;;;;5075783;28;20478;-72
2022/10/10 08:33:37;;;;;;;5.33;4.00;;;13.50;91.30;;;;;;5075711;28;20957;-72
2022/10/10 08:36:09;;;;;;;7.40;4.83;;;13.50;91.30;;;;;;5075990;28;20461;-72
2022/10/10 08:38:36;;;;;;;9.00;4.40;;;13.60;91.70;;;;;;5075923;28;20451;-72
2022/10/10 08:41:08;;;;;;;4.57;3.73;;;13.70;91.30;;;;;;5075252;28;20476;-72
2022/10/10 08:43:40;;;;;;;8.07;4.90;;;13.80;91.30;;;;;;5075473;28;20438;-72
2022/10/10 08:46:18;;;;;;;4.30;3.80;;;13.90;91.20;;;;;;5075661;28;20914;-72
2022/10/10 08:48:48;;;;;;;6.60;3.87;;;14.10;91.10;;;;;;5075200;28;20547;-72
2022/10/10 08:51:25;;;;;;;4.60;3.67;;;14.10;90.90;;;;;;5074470;28;20435;-72
2022/10/10 08:53:54;;;;;;;4.40;3.83;;;14.20;90.80;;;;;;5075549;28;20440;-72
2022/10/10 08:56:26;;;;;;;4.60;3.80;;;14.30;90.80;;;;;;5075858;28;20456;-72
2022/10/10 08:58:57;;;;;;;8.43;3.33;;;14.40;90.50;;;;;;5075726;28;20502;-72
2022/10/10 09:01:27;;;;;;;6.83;3.70;;;14.60;90.40;;;;;;5075717;28;20471;-72
2022/10/10 09:03:59;;;;;;;9.93;3.60;;;14.70;90.10;;;;;;5075335;28;20441;-73
2022/10/10 09:06:44;;;;;;;9.53;3.30;;;14.80;89.60;;;;;;5075502;28;20973;-73
2022/10/10 09:09:21;;;;;;;7.60;3.50;;;15.00;89.20;;;;;;5075879;28;20461;-73
2022/10/10 09:12:00;;;;;;;11.00;3.40;;;15.10;88.60;;;;;;5075298;28;20811;-73
2022/10/10 09:14:35;;;;;;;11.10;3.47;;;15.30;87.90;;;;;;5075540;28;20435;-73
2022/10/10 09:17:09;;;;;;;9.63;3.73;;;15.40;86.30;;;;;;5076223;28;20451;-72
2022/10/10 09:19:47;;;;;;;8.87;3.80;;;15.60;86.20;;;;;;5075830;28;20495;-72
2022/10/10 09:22:19;;;;;;;8.60;3.93;;;15.80;85.90;;;;;;5075659;28;20463;-72
2022/10/10 09:24:50;;;;;;;8.00;3.70;;;16.10;85.20;;;;;;5075002;28;20464;-72
2022/10/10 09:27:20;;;;;;;7.43;3.50;;;16.30;84.30;;;;;;5075457;28;20436;-73
2022/10/10 09:29:52;;;;;;;6.20;3.17;;;16.60;83.20;;;;;;5075113;28;20469;-73
2022/10/10 09:32:22;;;;;;;7.73;3.90;;;16.80;82.10;;;;;;5074851;28;20444;-73
2022/10/10 09:34:58;;;;;;;6.70;2.80;;;17.00;82.00;;;;;;5074867;28;20448;-74
2022/10/10 09:37:30;;;;;;;11.93;3.10;;;17.30;80.90;;;;;;5074965;28;20436;-73
2022/10/10 09:40:02;;;;;;;8.40;3.50;;;17.50;79.80;;;;;;5075789;28;20488;-73
2022/10/10 09:42:33;;;;;;;12.60;3.87;;;17.80;79.00;;;;;;5079187;28;20491;-73
2022/10/10 09:45:00;;;;;;;6.53;3.37;;;18.00;77.20;;;;;;5078513;28;20442;-73
2022/10/10 09:47:28;;;;;;;9.33;3.50;;;18.20;75.60;;;;;;5078444;28;20456;-73
2022/10/10 09:49:58;;;;;;;9.00;4.00;;;18.40;73.20;;;;;;5078570;28;20494;-73
2022/10/10 09:52:27;;;;;;;9.20;4.37;;;18.50;73.20;;;;;;5078819;28;20453;-72
2022/10/10 09:54:58;;;;;;;6.63;3.00;;;18.70;72.50;;;;;;5078804;28;20464;-72
2022/10/10 09:57:29;;;;;;;7.37;3.13;;;18.80;71.60;;;;;;5078945;28;20938;-72
2022/10/10 09:59:56;;;;;;;5.80;3.67;;;18.90;70.60;;;;;;5078385;28;20492;-73
2022/10/10 10:02:27;;;;;;;8.77;2.77;;;19.00;68.70;;;;;;5078388;28;20472;-72
2022/10/10 10:04:56;;;;;;;5.73;2.97;;;19.30;68.90;;;;;;5078055;28;20448;-72
2022/10/10 10:07:28;;;;;;;6.17;3.50;;;19.80;68.90;;;;;;5078072;28;20952;-72
2022/10/10 10:09:57;;;;;;;4.80;2.77;;;20.20;64.90;;;;;;5078379;28;20468;-72
2022/10/10 10:12:28;;;;;;;6.20;2.90;;;20.70;63.80;;;;;;5077604;28;20517;-72
2022/10/10 10:15:00;;;;;;;6.83;3.00;;;21.10;63.20;;;;;;5078099;28;20943;-72
2022/10/10 10:17:27;;;;;;;8.17;3.10;;;21.40;59.90;;;;;;5079334;28;20436;-73
2022/10/10 10:19:53;;;;;;;8.63;2.70;;;21.80;58.80;;;;;;5080566;28;20484;-73
2022/10/10 10:22:30;;;;;;;6.10;2.77;;;22.30;57.60;;;;;;5081527;28;20429;-72
2022/10/10 10:24:56;;;;;;;7.23;2.93;;;22.90;56.30;;;;;;5081956;28;20424;-72
2022/10/10 10:27:25;;;;;;;6.00;2.70;;;23.50;53.70;;;;;;5081665;28;20449;-73
2022/10/10 10:29:54;;;;;;;7.83;2.53;;;23.80;53.30;;;;;;5084524;28;20468;-73
2022/10/10 10:32:39;;;;;;;8.43;3.20;;;24.20;51.50;;;;;;5083211;28;20449;-72
2022/10/10 10:35:19;;;;;;;10.77;2.87;;;24.60;49.70;;;;;;5084066;28;20444;-72
2022/10/10 10:38:07;;;;;;;10.43;3.50;;;24.70;48.20;;;;;;5081415;28;20432;-73
2022/10/10 10:40:40;;;;;;;10.10;2.60;;;24.90;48.60;;;;;;5085773;28;20500;-73
2022/10/10 10:43:47;;;;;;;3.73;2.40;;;25.10;47.90;;;;;;5084419;28;20437;-72
2022/10/10 10:46:27;;;;;;;9.07;2.63;;;25.50;46.40;;;;;;5085074;28;20421;-72
2022/10/10 10:49:01;;;;;;;13.33;2.83;;;25.60;46.10;;;;;;5083056;28;20437;-72
2022/10/10 10:51:53;;;;;;;8.10;2.40;;;25.70;46.80;;;;;;5077920;28;20436;-73
2022/10/10 10:54:34;;;;;;;5.40;2.80;;;25.90;45.70;;;;;;5081673;28;20455;-72
2022/10/10 10:57:09;;;;;;;10.20;3.00;;;26.20;44.90;;;;;;5084052;28;20934;-72
2022/10/10 10:59:46;;;;;;;7.30;2.33;;;26.10;43.80;;;;;;5086313;28;20488;-73
2022/10/10 11:02:34;;;;;;;9.20;2.87;;;26.00;43.50;;;;;;5091769;28;20433;-72
2022/10/10 11:05:32;;;;;;;7.50;3.23;;;25.90;44.70;;;;;;5091373;28;20434;-72
2022/10/10 11:08:23;;;;;;;12.27;3.20;;;25.80;45.20;;;;;;5081141;28;20528;-72
2022/10/10 11:10:59;;;;;;;19.23;3.20;;;25.90;44.90;;;;;;5085311;28;20469;-72
2022/10/10 11:13:34;;;;;;;9.20;2.80;;;25.80;44.80;;;;;;5083038;28;20448;-72
2022/10/10 11:16:11;;;;;;;14.57;2.97;;;25.60;44.90;;;;;;5078932;28;20433;-72
2022/10/10 11:18:43;;;;;;;9.87;2.87;;;25.70;45.40;;;;;;5079885;28;20432;-72
2022/10/10 11:21:14;;;;;;;8.27;2.40;;;25.80;44.40;;;;;;5086229;28;20469;-72
2022/10/10 11:23:45;;;;;;;10.90;2.83;;;25.90;44.60;;;;;;5084991;28;20452;-72
2022/10/10 11:26:20;;;;;;;15.40;2.93;;;25.80;44.20;;;;;;5086299;28;20433;-72
2022/10/10 11:28:51;;;;;;;8.90;2.63;;;25.50;44.00;;;;;;5090807;28;20433;-72
2022/10/10 11:31:23;;;;;;;4.17;2.50;;;24.90;45.20;;;;;;5084927;28;20440;-72
2022/10/10 11:33:54;;;;;;;5.33;2.63;;;24.50;47.50;;;;;;5084144;28;20434;-72
2022/10/10 11:36:24;;;;;;;15.50;2.70;;;24.30;47.10;;;;;;5091443;28;20436;-72
2022/10/10 11:38:56;;;;;;;11.87;2.83;;;24.00;47.60;;;;;;5093903;28;20447;-73
2022/10/10 11:41:28;;;;;;;8.43;2.17;;;23.80;47.80;;;;;;5094670;28;20829;-73
2022/10/10 11:44:00;;;;;;;5.50;2.53;;;23.40;48.60;;;;;;5090870;28;20440;-72
2022/10/10 11:46:32;;;;;;;7.13;2.40;;;23.30;50.20;;;;;;5093960;28;20439;-73
2022/10/10 11:49:08;;;;;;;9.67;2.53;;;23.10;50.30;;;;;;5091289;28;20433;-72
2022/10/10 11:51:43;;;;;;;8.67;2.60;;;22.90;51.30;;;;;;5092399;28;20439;-73
2022/10/10 11:54:22;;;;;;;7.70;2.70;;;22.80;51.40;;;;;;5095732;28;20439;-73
2022/10/10 11:56:53;;;;;;;13.27;3.20;;;22.70;51.10;;;;;;5094388;28;20425;-73
2022/10/10 11:59:25;;;;;;;10.03;2.77;;;22.50;52.00;;;;;;5093402;28;20468;-73
2022/10/10 12:01:55;;;;;;;10.53;2.77;;;22.50;52.20;;;;;;5093478;28;20469;-73
2022/10/10 12:04:23;;;;;;;6.43;2.13;;;22.50;52.80;;;;;;5086277;28;20456;-73
2022/10/10 12:06:56;;;;;;;9.30;2.87;;;22.60;52.30;;;;;;5087605;28;20449;-72
2022/10/10 12:09:29;;;;;;;8.43;2.67;;;22.70;51.80;;;;;;5093179;28;20465;-73
2022/10/10 12:12:03;;;;;;;12.90;3.47;;;22.70;52.60;;;;;;5089411;28;20430;-73
2022/10/10 12:14:31;;;;;;;8.83;2.30;;;22.70;52.50;;;;;;5091090;28;20453;-72
2022/10/10 12:16:58;;;;;;;11.17;2.87;;;22.70;53.00;;;;;;5087557;28;20460;-72
2022/10/10 12:19:28;;;;;;;7.10;2.50;;;22.80;52.90;;;;;;5087225;28;20475;-73
2022/10/10 12:21:58;;;;;;;8.03;2.70;;;22.80;52.10;;;;;;5088348;28;20487;-73
2022/10/10 12:24:26;;;;;;;9.20;3.13;;;22.90;52.50;;;;;;5086666;28;20528;-72
2022/10/10 12:27:26;;;;;;;7.97;2.50;;;23.00;51.60;;;;;;5087641;28;20437;-72
2022/10/10 12:30:23;;;;;;;8.03;2.43;;;23.10;52.60;;;;;;5091992;28;20461;-73
2022/10/10 12:32:52;;;;;;;9.50;2.67;;;23.10;52.40;;;;;;5091498;28;20437;-73
2022/10/10 12:35:47;;;;;;;9.73;2.80;;;23.10;51.40;;;;;;5084744;28;20441;-72
2022/10/10 12:38:17;;;;;;;11.60;3.20;;;23.20;51.60;;;;;;5045783;28;20518;-73
2022/10/10 12:41:12;;;;;;;7.60;2.63;;;23.50;51.50;;;;;;5079387;28;20485;-73
2022/10/10 12:43:49;;;;;;;10.80;2.47;;;23.90;50.70;;;;;;5078376;28;20448;-72
2022/10/10 12:46:26;;;;;;;13.70;2.87;;;24.60;49.70;;;;;;5080360;28;20447;-72
2022/10/10 12:49:15;;;;;;;8.93;2.83;;;25.60;47.90;;;;;;5083048;28;20432;-73
2022/10/10 12:51:43;;;;;;;9.10;2.60;;;26.80;43.80;;;;;;5084721;28;20442;-73
2022/10/10 12:54:24;;;;;;;12.60;2.60;;;27.60;41.40;;;;;;5079253;28;20482;-73
2022/10/10 12:56:58;;;;;;;6.50;2.80;;;28.10;40.90;;;;;;5078424;28;20441;-73
2022/10/10 12:59:27;;;;;;;10.13;3.97;;;28.10;39.20;;;;;;5076155;28;20476;-73
2022/10/10 13:01:57;;;;;;;7.23;2.80;;;28.10;40.10;;;;;;5077476;28;20476;-73